createdAt,value
2022-09-12T00:04:10.203Z,8.97
2022-09-12T00:09:13.340Z,12.00
2022-09-12T00:14:16.823Z,9.10
2022-09-12T00:19:18.342Z,10.07
2022-09-12T00:24:19.558Z,12.03
2022-09-12T00:29:21.978Z,10.23
2022-09-12T00:34:23.365Z,12.43
2022-09-12T00:39:24.654Z,11.13
2022-09-12T00:44:25.821Z,12.33
2022-09-12T00:49:56.986Z,10.83
2022-09-12T00:55:11.502Z,15.00
2022-09-12T01:00:16.058Z,15.37
2022-09-12T01:05:17.448Z,12.97
2022-09-12T01:10:19.393Z,10.73
2022-09-12T01:15:20.662Z,12.73
2022-09-12T01:20:40.723Z,14.30
2022-09-12T01:25:48.360Z,10.77
2022-09-12T01:31:00.191Z,12.30
2022-09-12T01:36:20.390Z,11.53
2022-09-12T01:42:05.750Z,14.87
2022-09-12T01:47:09.835Z,11.37
2022-09-12T01:52:28.370Z,11.83
2022-09-12T01:57:35.835Z,16.63
2022-09-12T02:02:41.354Z,17.50
2022-09-12T02:07:46.719Z,14.93
2022-09-12T02:13:03.326Z,15.33
2022-09-12T02:18:05.966Z,14.73
2022-09-12T02:23:13.778Z,10.50
2022-09-12T02:28:20.978Z,11.43
2022-09-12T02:33:47.721Z,11.83
2022-09-12T02:38:49.570Z,14.60
2022-09-12T02:43:51.914Z,17.90
2022-09-12T02:48:53.669Z,13.10
2022-09-12T02:53:56.308Z,14.93
2022-09-12T02:59:04.847Z,14.83
2022-09-12T03:04:20.460Z,13.17
2022-09-12T03:09:40.605Z,15.70
2022-09-12T03:15:02.526Z,19.23
2022-09-12T03:20:26.877Z,15.00
2022-09-12T03:25:35.423Z,18.30
2022-09-12T03:30:41.908Z,19.10
2022-09-12T03:35:45.065Z,15.93
2022-09-12T03:40:46.169Z,20.73
2022-09-12T03:45:51.561Z,16.33
2022-09-12T03:50:52.834Z,26.33
2022-09-12T03:55:54.077Z,22.73
2022-09-12T04:00:55.189Z,20.23
2022-09-12T04:05:57.106Z,20.90
2022-09-12T04:11:03.458Z,20.03
2022-09-12T04:16:05.522Z,19.43
2022-09-12T04:21:10.495Z,28.20
2022-09-12T04:26:12.994Z,17.90
2022-09-12T04:31:21.877Z,21.30
2022-09-12T04:36:24.810Z,21.00
2022-09-12T04:41:30.001Z,23.40
2022-09-12T04:46:34.417Z,19.83
2022-09-12T04:51:37.571Z,20.60
2022-09-12T04:56:41.512Z,23.30
2022-09-12T05:01:43.105Z,23.63
2022-09-12T05:06:46.582Z,24.93
2022-09-12T05:12:03.867Z,21.07
2022-09-12T05:17:05.561Z,20.70
2022-09-12T05:22:06.878Z,22.47
2022-09-12T05:27:08.815Z,24.50
2022-09-12T05:32:11.716Z,25.33
2022-09-12T05:37:12.759Z,26.60
2022-09-12T05:42:14.297Z,29.97
2022-09-12T05:47:16.594Z,39.17
2022-09-12T05:52:17.875Z,40.40
2022-09-12T05:57:18.946Z,30.90
2022-09-12T06:02:20.226Z,29.63
2022-09-12T06:07:21.941Z,35.67
2022-09-12T06:12:22.997Z,32.37
2022-09-12T06:17:24.316Z,34.93
2022-09-12T06:22:25.344Z,31.27
2022-09-12T06:27:26.413Z,33.30
2022-09-12T06:32:30.065Z,33.00
2022-09-12T06:37:31.989Z,25.43
2022-09-12T06:42:33.052Z,19.38
2022-09-12T06:47:34.499Z,17.77
2022-09-12T06:52:35.737Z,14.93
2022-09-12T06:57:38.142Z,16.25
2022-09-12T07:02:39.264Z,14.07
2022-09-12T07:07:40.821Z,11.73
2022-09-12T07:12:41.946Z,12.98
2022-09-12T07:17:42.986Z,11.10
2022-09-12T07:22:44.476Z,14.32
2022-09-12T07:27:50.619Z,13.35
2022-09-12T07:32:53.423Z,10.20
2022-09-12T07:37:55.515Z,12.18
2022-09-12T07:42:58.098Z,10.70
2022-09-12T07:47:59.441Z,8.32
2022-09-12T07:53:02.398Z,8.40
2022-09-12T07:58:03.812Z,6.60
2022-09-12T08:03:06.561Z,5.95
2022-09-12T08:08:09.126Z,7.93
2022-09-12T08:13:10.870Z,7.55
2022-09-12T08:18:12.297Z,6.88
2022-09-12T08:23:13.546Z,5.20
2022-09-12T08:28:14.772Z,4.13
2022-09-12T08:33:16.098Z,6.05
2022-09-12T08:38:18.922Z,5.82
2022-09-12T08:43:22.997Z,8.93
2022-09-12T08:48:24.137Z,3.47
2022-09-12T08:53:27.002Z,4.63
2022-09-12T08:58:28.838Z,5.15
2022-09-12T09:04:14.337Z,4.82
2022-09-12T09:09:50.261Z,3.13
2022-09-12T09:15:00.730Z,4.30
2022-09-12T09:20:22.034Z,3.30
2022-09-12T09:25:28.649Z,2.50
2022-09-12T09:30:30.747Z,2.88
2022-09-12T09:35:44.762Z,2.33
2022-09-12T09:41:02.568Z,2.35
2022-09-12T09:46:04.551Z,2.60
2022-09-12T09:51:08.480Z,6.20
2022-09-12T09:56:28.442Z,2.38
2022-09-12T10:01:29.706Z,2.15
2022-09-12T10:06:37.241Z,4.40
2022-09-12T10:11:41.513Z,1.60
2022-09-12T10:16:54.086Z,2.03
2022-09-12T10:21:55.877Z,1.95
2022-09-12T10:27:08.153Z,1.75
2022-09-12T10:32:11.891Z,1.88
2022-09-12T10:37:28.070Z,2.00
2022-09-12T10:42:47.925Z,1.80
2022-09-12T10:47:49.317Z,2.50
2022-09-12T10:52:50.599Z,1.35
2022-09-12T10:58:15.998Z,1.75
2022-09-12T11:03:38.955Z,3.63
2022-09-12T11:09:08.125Z,2.78
2022-09-12T11:14:19.221Z,3.13
2022-09-12T11:19:50.226Z,2.70
2022-09-12T11:25:09.758Z,2.28
2022-09-12T11:30:15.206Z,2.42
2022-09-12T11:35:28.754Z,2.88
2022-09-12T11:40:56.180Z,1.50
2022-09-12T11:46:06.238Z,1.42
2022-09-12T11:51:17.487Z,1.95
2022-09-12T11:56:18.866Z,5.13
2022-09-12T12:01:25.530Z,1.92
2022-09-12T12:06:32.702Z,1.55
2022-09-12T12:11:39.549Z,2.83
2022-09-12T12:16:41.398Z,1.90
2022-09-12T12:21:43.609Z,2.28
2022-09-12T12:27:00.017Z,2.97
2022-09-12T12:32:03.997Z,2.38
2022-09-12T12:37:20.484Z,2.40
2022-09-12T12:42:34.135Z,1.95
2022-09-12T12:47:35.155Z,2.00
2022-09-12T12:53:03.813Z,4.03
2022-09-12T12:58:08.006Z,2.85
2022-09-12T13:03:25.393Z,2.97
2022-09-12T13:08:32.785Z,2.40
2022-09-12T13:13:36.524Z,2.95
2022-09-12T13:18:45.639Z,2.50
2022-09-12T13:24:15.167Z,3.83
2022-09-12T13:29:18.873Z,1.83
2022-09-12T13:34:27.756Z,2.47
2022-09-12T13:39:36.910Z,2.78
2022-09-12T13:44:50.026Z,2.35
2022-09-12T13:49:52.278Z,2.33
2022-09-12T13:54:57.486Z,1.63
2022-09-12T14:00:00.670Z,3.05
2022-09-12T14:05:19.044Z,3.25
2022-09-12T14:10:28.111Z,4.70
2022-09-12T14:15:31.849Z,3.25
2022-09-12T14:20:36.634Z,3.47
2022-09-12T14:25:40.658Z,5.13
2022-09-12T14:31:06.839Z,2.67
2022-09-12T14:36:34.614Z,5.32
2022-09-12T14:41:39.565Z,2.22
2022-09-12T14:46:42.693Z,3.90
2022-09-12T14:51:56.554Z,2.47
2022-09-12T14:57:03.522Z,4.45
2022-09-12T15:02:31.115Z,3.75
2022-09-12T15:07:59.485Z,2.42
2022-09-12T15:13:13.607Z,3.80
2022-09-12T15:18:15.526Z,4.03
2022-09-12T15:23:43.673Z,1.65
2022-09-12T15:28:45.505Z,2.15
2022-09-12T15:33:46.813Z,5.05
2022-09-12T15:38:48.722Z,2.08
2022-09-12T15:43:50.245Z,2.72
2022-09-12T15:48:51.658Z,4.47
2022-09-12T15:53:53.017Z,2.35
2022-09-12T15:58:59.079Z,1.40
2022-09-12T16:04:02.469Z,1.45
2022-09-12T16:09:03.596Z,2.75
2022-09-12T16:14:05.269Z,2.95
2022-09-12T16:19:07.396Z,1.48
2022-09-12T16:24:08.637Z,1.98
2022-09-12T16:29:12.534Z,1.33
2022-09-12T16:34:13.694Z,2.33
2022-09-12T16:39:14.817Z,1.52
2022-09-12T16:44:15.954Z,4.43
2022-09-12T16:49:17.082Z,3.58
2022-09-12T16:54:18.421Z,2.15
2022-09-12T16:59:19.711Z,2.72
2022-09-12T17:04:23.546Z,1.20
2022-09-12T17:09:27.339Z,1.52
2022-09-12T17:14:28.557Z,4.47
2022-09-12T17:19:29.719Z,2.55
2022-09-12T17:24:32.253Z,4.38
2022-09-12T17:29:35.102Z,3.72
2022-09-12T17:34:36.374Z,1.25
2022-09-12T17:39:37.556Z,1.23
2022-09-12T17:44:38.766Z,4.07
2022-09-12T17:49:39.907Z,5.15
2022-09-12T17:54:41.938Z,2.47
2022-09-12T17:59:42.963Z,2.72
2022-09-12T18:04:45.498Z,2.20
2022-09-12T18:09:47.090Z,2.65
2022-09-12T18:14:48.364Z,5.72
2022-09-12T18:19:53.674Z,4.40
2022-09-12T18:24:54.943Z,2.38
2022-09-12T18:30:17.517Z,2.47
2022-09-12T18:35:17.310Z,1.45
2022-09-12T18:40:18.510Z,3.42
2022-09-12T18:45:19.638Z,1.90
2022-09-12T18:50:22.403Z,2.28
2022-09-12T18:55:23.771Z,1.95
2022-09-12T19:00:25.177Z,3.13
2022-09-12T19:05:27.474Z,1.90
2022-09-12T19:10:28.867Z,4.25
2022-09-12T19:15:30.020Z,2.50
2022-09-12T19:20:34.385Z,3.75
2022-09-12T19:25:35.839Z,2.92
2022-09-12T19:30:37.431Z,4.47
2022-09-12T19:35:40.116Z,4.88
2022-09-12T19:40:41.895Z,5.30
2022-09-12T19:45:46.953Z,2.92
2022-09-12T19:50:48.717Z,7.22
2022-09-12T19:55:49.852Z,2.63
2022-09-12T20:00:50.946Z,3.58
2022-09-12T20:05:52.190Z,3.30
2022-09-12T20:10:57.203Z,3.90
2022-09-12T20:16:21.986Z,4.57
2022-09-12T20:21:30.327Z,3.22
2022-09-12T20:26:32.247Z,4.38
2022-09-12T20:31:34.968Z,4.18
2022-09-12T20:36:36.288Z,3.15
2022-09-12T20:41:37.377Z,2.33
2022-09-12T20:46:39.380Z,2.35
2022-09-12T20:51:40.469Z,2.50
2022-09-12T20:56:42.065Z,4.20
2022-09-12T21:01:43.410Z,4.40
2022-09-12T21:06:44.606Z,3.92
2022-09-12T21:11:45.726Z,2.63
2022-09-12T21:16:46.841Z,3.50
2022-09-12T21:21:47.951Z,4.68
2022-09-12T21:26:49.008Z,4.63
2022-09-12T21:31:50.782Z,4.88
2022-09-12T21:36:52.159Z,3.22
2022-09-12T21:41:53.368Z,4.32
2022-09-12T21:46:54.460Z,2.42
2022-09-12T21:51:55.723Z,5.60
2022-09-12T21:56:56.978Z,4.15
2022-09-12T22:01:58.110Z,5.30
2022-09-12T22:07:01.372Z,5.75
2022-09-12T22:12:02.841Z,4.72
2022-09-12T22:17:04.768Z,4.50
2022-09-12T22:22:25.543Z,7.13
2022-09-12T22:27:26.574Z,4.18
2022-09-12T22:32:27.787Z,3.15
2022-09-12T22:37:29.225Z,4.97
2022-09-12T22:42:30.590Z,6.50
2022-09-12T22:47:31.654Z,5.57
2022-09-12T22:52:32.874Z,3.70
2022-09-12T22:57:34.078Z,3.47
2022-09-12T23:02:35.376Z,3.88
2022-09-12T23:07:36.444Z,2.83
2022-09-12T23:12:37.475Z,7.88
2022-09-12T23:17:39.387Z,7.43
2022-09-12T23:22:40.673Z,4.60
2022-09-12T23:27:42.555Z,3.97
2022-09-12T23:32:44.042Z,3.53
2022-09-12T23:37:46.112Z,5.63
2022-09-12T23:42:47.291Z,5.75
2022-09-12T23:47:48.491Z,3.92
2022-09-12T23:52:49.562Z,7.55
2022-09-12T23:57:50.838Z,1.98
